sensor_id;sensor_type;location;lat;lon;timestamp;pressure;altitude;pressure_sealevel;temperature;humidity
59043;BME280;44826;51.596;5.624;2022-11-20T00:00:37;101257.81;;;-2.17;76.75
59043;BME280;44826;51.596;5.624;2022-11-20T00:03:02;101254.34;;;-2.19;76.62
59043;BME280;44826;51.596;5.624;2022-11-20T00:05:27;101246.56;;;-2.23;76.93
59043;BME280;44826;51.596;5.624;2022-11-20T00:07:52;101248.19;;;-2.25;77.31
59043;BME280;44826;51.596;5.624;2022-11-20T00:10:18;101252.47;;;-2.24;77.33
59043;BME280;44826;51.596;5.624;2022-11-20T00:12:43;101243.13;;;-2.24;76.67
59043;BME280;44826;51.596;5.624;2022-11-20T00:15:09;101253.38;;;-2.22;76.98
59043;BME280;44826;51.596;5.624;2022-11-20T00:17:35;101255.88;;;-2.24;77.26
59043;BME280;44826;51.596;5.624;2022-11-20T00:20:00;101251.53;;;-2.26;76.69
59043;BME280;44826;51.596;5.624;2022-11-20T00:22:25;101242.31;;;-2.23;77.09
59043;BME280;44826;51.596;5.624;2022-11-20T00:24:50;101233.00;;;-2.22;76.32
59043;BME280;44826;51.596;5.624;2022-11-20T00:27:16;101227.91;;;-2.22;76.62
59043;BME280;44826;51.596;5.624;2022-11-20T00:29:41;101235.53;;;-2.22;76.98
59043;BME280;44826;51.596;5.624;2022-11-20T00:32:06;101232.09;;;-2.23;76.97
59043;BME280;44826;51.596;5.624;2022-11-20T00:34:31;101229.56;;;-2.23;76.24
59043;BME280;44826;51.596;5.624;2022-11-20T00:36:57;101230.44;;;-2.22;76.22
59043;BME280;44826;51.596;5.624;2022-11-20T00:39:22;101219.38;;;-2.23;76.36
59043;BME280;44826;51.596;5.624;2022-11-20T00:41:47;101222.69;;;-2.25;76.88
59043;BME280;44826;51.596;5.624;2022-11-20T00:44:12;101227.78;;;-2.25;75.92
59043;BME280;44826;51.596;5.624;2022-11-20T00:46:38;101236.19;;;-2.28;76.49
59043;BME280;44826;51.596;5.624;2022-11-20T00:49:03;101226.81;;;-2.29;76.91
59043;BME280;44826;51.596;5.624;2022-11-20T00:51:28;101224.25;;;-2.29;76.54
59043;BME280;44826;51.596;5.624;2022-11-20T00:53:57;101226.75;;;-2.31;76.54
59043;BME280;44826;51.596;5.624;2022-11-20T00:56:24;101226.75;;;-2.31;76.25
59043;BME280;44826;51.596;5.624;2022-11-20T00:58:49;101216.56;;;-2.31;75.91
59043;BME280;44826;51.596;5.624;2022-11-20T01:01:17;101217.38;;;-2.32;76.40
59043;BME280;44826;51.596;5.624;2022-11-20T01:03:45;101225.84;;;-2.33;76.98
59043;BME280;44826;51.596;5.624;2022-11-20T01:06:19;101224.91;;;-2.35;76.97
59043;BME280;44826;51.596;5.624;2022-11-20T01:08:45;101225.72;;;-2.36;77.12
59043;BME280;44826;51.596;5.624;2022-11-20T01:11:14;101227.47;;;-2.35;77.56
59043;BME280;44826;51.596;5.624;2022-11-20T01:13:41;101242.75;;;-2.35;77.02
59043;BME280;44826;51.596;5.624;2022-11-20T01:16:21;101242.75;;;-2.35;77.06
59043;BME280;44826;51.596;5.624;2022-11-20T01:18:49;101239.34;;;-2.35;77.52
59043;BME280;44826;51.596;5.624;2022-11-20T01:21:23;101235.91;;;-2.36;77.42
59043;BME280;44826;51.596;5.624;2022-11-20T01:23:49;101241.94;;;-2.34;77.68
59043;BME280;44826;51.596;5.624;2022-11-20T01:26:18;101232.47;;;-2.38;77.21
59043;BME280;44826;51.596;5.624;2022-11-20T01:28:43;101226.63;;;-2.35;77.23
59043;BME280;44826;51.596;5.624;2022-11-20T01:33:48;101217.28;;;-2.35;77.18
59043;BME280;44826;51.596;5.624;2022-11-20T01:36:14;101229.88;;;-2.39;77.67
59043;BME280;44826;51.596;5.624;2022-11-20T01:38:40;101232.31;;;-2.42;77.97
59043;BME280;44826;51.596;5.624;2022-11-20T01:41:06;101226.41;;;-2.41;76.75
59043;BME280;44826;51.596;5.624;2022-11-20T01:43:32;101224.50;;;-2.47;77.38
59043;BME280;44826;51.596;5.624;2022-11-20T01:48:36;101233.66;;;-2.52;77.10
59043;BME280;44826;51.596;5.624;2022-11-20T01:51:04;101232.72;;;-2.56;77.82
59043;BME280;44826;51.596;5.624;2022-11-20T01:53:33;101225.03;;;-2.57;77.58
59043;BME280;44826;51.596;5.624;2022-11-20T01:56:03;101234.28;;;-2.60;77.92
59043;BME280;44826;51.596;5.624;2022-11-20T01:58:33;101225.88;;;-2.57;78.22
59043;BME280;44826;51.596;5.624;2022-11-20T02:01:00;101224.03;;;-2.61;77.62
59043;BME280;44826;51.596;5.624;2022-11-20T02:03:26;101229.91;;;-2.64;77.65
59043;BME280;44826;51.596;5.624;2022-11-20T02:06:12;101223.84;;;-2.67;77.63
59043;BME280;44826;51.596;5.624;2022-11-20T02:08:39;101223.84;;;-2.67;78.13
59043;BME280;44826;51.596;5.624;2022-11-20T02:11:04;101220.31;;;-2.71;76.95
59043;BME280;44826;51.596;5.624;2022-11-20T02:13:30;101222.66;;;-2.77;77.54
59043;BME280;44826;51.596;5.624;2022-11-20T02:16:37;101221.66;;;-2.81;77.61
59043;BME280;44826;51.596;5.624;2022-11-20T02:19:04;101224.16;;;-2.82;77.90
59043;BME280;44826;51.596;5.624;2022-11-20T02:21:40;101228.41;;;-2.83;78.04
59043;BME280;44826;51.596;5.624;2022-11-20T02:24:15;101224.97;;;-2.83;78.25
59043;BME280;44826;51.596;5.624;2022-11-20T02:27:03;101216.41;;;-2.85;77.99
59043;BME280;44826;51.596;5.624;2022-11-20T02:30:03;101210.38;;;-2.87;77.89
59043;BME280;44826;51.596;5.624;2022-11-20T02:32:34;101203.47;;;-2.92;77.65
59043;BME280;44826;51.596;5.624;2022-11-20T02:35:39;101204.34;;;-2.91;77.67
59043;BME280;44826;51.596;5.624;2022-11-20T02:37:59;101209.16;;;-2.99;77.77
59043;BME280;44826;51.596;5.624;2022-11-20T02:40:26;101204.75;;;-3.03;78.17
59043;BME280;44826;51.596;5.624;2022-11-20T02:42:55;101204.75;;;-3.03;77.77
59043;BME280;44826;51.596;5.624;2022-11-20T02:45:21;101204.63;;;-3.06;78.04
59043;BME280;44826;51.596;5.624;2022-11-20T02:47:47;101210.47;;;-3.10;78.71
59043;BME280;44826;51.596;5.624;2022-11-20T02:50:13;101215.53;;;-3.10;78.67
59043;BME280;44826;51.596;5.624;2022-11-20T02:52:38;101218.09;;;-3.10;78.17
59043;BME280;44826;51.596;5.624;2022-11-20T02:55:03;101212.06;;;-3.12;78.01
59043;BME280;44826;51.596;5.624;2022-11-20T02:57:29;101212.78;;;-3.16;78.75
59043;BME280;44826;51.596;5.624;2022-11-20T02:59:54;101209.41;;;-3.15;78.85
59043;BME280;44826;51.596;5.624;2022-11-20T03:02:19;101212.78;;;-3.16;78.53
59043;BME280;44826;51.596;5.624;2022-11-20T03:04:45;101217.06;;;-3.15;78.57
59043;BME280;44826;51.596;5.624;2022-11-20T03:07:10;101211.16;;;-3.14;78.51
59043;BME280;44826;51.596;5.624;2022-11-20T03:09:36;101217.84;;;-3.16;78.78
59043;BME280;44826;51.596;5.624;2022-11-20T03:12:01;101200.84;;;-3.17;78.44
59043;BME280;44826;51.596;5.624;2022-11-20T03:14:26;101203.34;;;-3.19;78.62
59043;BME280;44826;51.596;5.624;2022-11-20T03:16:52;101207.69;;;-3.16;78.77
59043;BME280;44826;51.596;5.624;2022-11-20T03:19:17;101203.56;;;-3.13;78.47
59043;BME280;44826;51.596;5.624;2022-11-20T03:21:42;101201.19;;;-3.08;78.34
59043;BME280;44826;51.596;5.624;2022-11-20T03:24:08;101200.44;;;-3.06;78.32
59043;BME280;44826;51.596;5.624;2022-11-20T03:26:33;101200.56;;;-3.02;78.13
59043;BME280;44826;51.596;5.624;2022-11-20T03:29:00;101190.25;;;-3.06;78.68
59043;BME280;44826;51.596;5.624;2022-11-20T03:31:31;101187.72;;;-3.06;78.37
59043;BME280;44826;51.596;5.624;2022-11-20T03:33:57;101178.44;;;-3.03;78.51
59043;BME280;44826;51.596;5.624;2022-11-20T03:36:23;101181.03;;;-3.02;79.10
59043;BME280;44826;51.596;5.624;2022-11-20T03:38:49;101181.03;;;-3.02;79.30
59043;BME280;44826;51.596;5.624;2022-11-20T03:41:18;101181.16;;;-2.99;79.89
59043;BME280;44826;51.596;5.624;2022-11-20T03:43:54;101168.53;;;-2.96;79.05
59043;BME280;44826;51.596;5.624;2022-11-20T03:46:20;101177.84;;;-2.96;78.81
59043;BME280;44826;51.596;5.624;2022-11-20T03:48:46;101180.34;;;-2.98;78.55
59043;BME280;44826;51.596;5.624;2022-11-20T03:51:15;101170.03;;;-3.01;79.20
59043;BME280;44826;51.596;5.624;2022-11-20T03:53:41;101172.56;;;-3.02;78.67
59043;BME280;44826;51.596;5.624;2022-11-20T03:56:08;101167.28;;;-3.07;78.46
59043;BME280;44826;51.596;5.624;2022-11-20T03:58:35;101163.72;;;-3.12;78.42
59043;BME280;44826;51.596;5.624;2022-11-20T04:01:15;101162.00;;;-3.13;79.04
59043;BME280;44826;51.596;5.624;2022-11-20T04:03:42;101167.06;;;-3.13;80.25
59043;BME280;44826;51.596;5.624;2022-11-20T04:06:10;101165.47;;;-3.11;80.08
59043;BME280;44826;51.596;5.624;2022-11-20T04:08:36;101165.47;;;-3.11;79.66
59043;BME280;44826;51.596;5.624;2022-11-20T04:11:40;101162.94;;;-3.10;79.99
59043;BME280;44826;51.596;5.624;2022-11-20T04:14:06;101152.00;;;-3.07;79.84
59043;BME280;44826;51.596;5.624;2022-11-20T04:16:37;101154.47;;;-3.10;80.34
59043;BME280;44826;51.596;5.624;2022-11-20T04:19:06;101151.91;;;-3.10;79.40
59043;BME280;44826;51.596;5.624;2022-11-20T04:21:32;101160.38;;;-3.11;79.99
59043;BME280;44826;51.596;5.624;2022-11-20T04:23:57;101161.88;;;-3.16;79.14
59043;BME280;44826;51.596;5.624;2022-11-20T04:26:25;101156.91;;;-3.13;79.30
59043;BME280;44826;51.596;5.624;2022-11-20T04:28:50;101155.94;;;-3.17;79.62
59043;BME280;44826;51.596;5.624;2022-11-20T04:31:18;101156.75;;;-3.18;79.66
59043;BME280;44826;51.596;5.624;2022-11-20T04:33:44;101154.19;;;-3.18;79.46
59043;BME280;44826;51.596;5.624;2022-11-20T04:36:15;101154.00;;;-3.23;79.35
59043;BME280;44826;51.596;5.624;2022-11-20T04:38:41;101146.38;;;-3.23;78.90
59043;BME280;44826;51.596;5.624;2022-11-20T04:41:09;101145.47;;;-3.25;79.75
59043;BME280;44826;51.596;5.624;2022-11-20T04:43:37;101142.94;;;-3.25;78.75
59043;BME280;44826;51.596;5.624;2022-11-20T04:46:02;101148.03;;;-3.25;78.96
59043;BME280;44826;51.596;5.624;2022-11-20T04:48:28;101144.56;;;-3.27;79.27
59043;BME280;44826;51.596;5.624;2022-11-20T04:50:54;101144.44;;;-3.30;78.96
59043;BME280;44826;51.596;5.624;2022-11-20T04:53:20;101149.41;;;-3.33;79.25
59043;BME280;44826;51.596;5.624;2022-11-20T04:55:46;101148.44;;;-3.37;79.28
59043;BME280;44826;51.596;5.624;2022-11-20T04:58:12;101146.81;;;-3.34;79.69
59043;BME280;44826;51.596;5.624;2022-11-20T05:00:37;101142.47;;;-3.37;79.56
59043;BME280;44826;51.596;5.624;2022-11-20T05:03:03;101146.81;;;-3.34;79.49
59043;BME280;44826;51.596;5.624;2022-11-20T05:05:28;101137.50;;;-3.34;79.57
59043;BME280;44826;51.596;5.624;2022-11-20T05:07:56;101134.97;;;-3.34;79.09
59043;BME280;44826;51.596;5.624;2022-11-20T05:10:22;101141.66;;;-3.36;79.53
59043;BME280;44826;51.596;5.624;2022-11-20T05:12:47;101126.25;;;-3.41;78.93
59043;BME280;44826;51.596;5.624;2022-11-20T05:15:12;101133.84;;;-3.42;79.31
59043;BME280;44826;51.596;5.624;2022-11-20T05:17:38;101129.59;;;-3.42;79.75
59043;BME280;44826;51.596;5.624;2022-11-20T05:20:03;101125.38;;;-3.41;79.25
59043;BME280;44826;51.596;5.624;2022-11-20T05:22:28;101122.81;;;-3.41;79.77
59043;BME280;44826;51.596;5.624;2022-11-20T05:24:54;101120.28;;;-3.41;79.33
59043;BME280;44826;51.596;5.624;2022-11-20T05:27:19;101124.56;;;-3.40;79.18
59043;BME280;44826;51.596;5.624;2022-11-20T05:29:45;101122.00;;;-3.40;79.73
59043;BME280;44826;51.596;5.624;2022-11-20T05:32:10;101120.50;;;-3.35;79.32
59043;BME280;44826;51.596;5.624;2022-11-20T05:34:35;101114.66;;;-3.32;79.76
59043;BME280;44826;51.596;5.624;2022-11-20T05:37:02;101120.72;;;-3.29;79.47
59043;BME280;44826;51.596;5.624;2022-11-20T05:39:27;101121.53;;;-3.30;79.94
59043;BME280;44826;51.596;5.624;2022-11-20T05:41:53;101123.28;;;-3.29;80.04
59043;BME280;44826;51.596;5.624;2022-11-20T05:44:38;101115.84;;;-3.23;80.05
59043;BME280;44826;51.596;5.624;2022-11-20T05:47:04;101115.13;;;-3.18;80.20
59043;BME280;44826;51.596;5.624;2022-11-20T05:49:29;101119.56;;;-3.13;80.47
59043;BME280;44826;51.596;5.624;2022-11-20T05:51:55;101120.66;;;-3.06;80.50
59043;BME280;44826;51.596;5.624;2022-11-20T05:54:20;101122.50;;;-3.02;80.47
59043;BME280;44826;51.596;5.624;2022-11-20T05:56:45;101122.56;;;-3.00;81.17
59043;BME280;44826;51.596;5.624;2022-11-20T05:59:10;101119.28;;;-2.96;80.71
59043;BME280;44826;51.596;5.624;2022-11-20T06:01:36;101130.53;;;-2.90;80.70
59043;BME280;44826;51.596;5.624;2022-11-20T06:04:01;101123.81;;;-2.87;80.81
59043;BME280;44826;51.596;5.624;2022-11-20T06:06:27;101132.50;;;-2.82;81.40
59043;BME280;44826;51.596;5.624;2022-11-20T06:08:52;101140.28;;;-2.78;81.71
59043;BME280;44826;51.596;5.624;2022-11-20T06:11:18;101137.00;;;-2.75;81.38
59043;BME280;44826;51.596;5.624;2022-11-20T06:13:43;101142.22;;;-2.70;81.30
59043;BME280;44826;51.596;5.624;2022-11-20T06:16:10;101145.75;;;-2.67;80.95
59043;BME280;44826;51.596;5.624;2022-11-20T06:18:36;101140.75;;;-2.64;81.32
59043;BME280;44826;51.596;5.624;2022-11-20T06:21:07;101143.41;;;-2.61;81.37
59043;BME280;44826;51.596;5.624;2022-11-20T06:23:34;101146.91;;;-2.57;81.05
59043;BME280;44826;51.596;5.624;2022-11-20T06:26:04;101146.09;;;-2.56;81.27
59043;BME280;44826;51.596;5.624;2022-11-20T06:28:30;101145.31;;;-2.53;81.36
59043;BME280;44826;51.596;5.624;2022-11-20T06:30:55;101147.94;;;-2.52;81.00
59043;BME280;44826;51.596;5.624;2022-11-20T06:33:21;101153.19;;;-2.47;81.61
59043;BME280;44826;51.596;5.624;2022-11-20T06:35:46;101140.56;;;-2.44;81.04
59043;BME280;44826;51.596;5.624;2022-11-20T06:38:11;101142.41;;;-2.38;81.32
59043;BME280;44826;51.596;5.624;2022-11-20T06:40:40;101131.53;;;-2.34;81.43
59043;BME280;44826;51.596;5.624;2022-11-20T06:43:05;101132.50;;;-2.29;81.00
59043;BME280;44826;51.596;5.624;2022-11-20T06:45:30;101135.88;;;-2.30;81.32
59043;BME280;44826;51.596;5.624;2022-11-20T06:47:57;101137.66;;;-2.27;81.10
59043;BME280;44826;51.596;5.624;2022-11-20T06:50:22;101142.00;;;-2.25;81.36
59043;BME280;44826;51.596;5.624;2022-11-20T06:52:47;101139.41;;;-2.26;81.54
59043;BME280;44826;51.596;5.624;2022-11-20T06:55:13;101131.84;;;-2.23;81.42
59043;BME280;44826;51.596;5.624;2022-11-20T06:57:38;101131.03;;;-2.22;81.20
59043;BME280;44826;51.596;5.624;2022-11-20T07:00:04;101123.53;;;-2.18;81.73
59043;BME280;44826;51.596;5.624;2022-11-20T07:02:29;101121.97;;;-2.13;81.52
59043;BME280;44826;51.596;5.624;2022-11-20T07:04:54;101114.38;;;-2.11;80.72
59043;BME280;44826;51.596;5.624;2022-11-20T07:07:19;101117.78;;;-2.10;82.01
59043;BME280;44826;51.596;5.624;2022-11-20T07:09:45;101122.13;;;-2.08;81.33
59043;BME280;44826;51.596;5.624;2022-11-20T07:12:10;101123.09;;;-2.04;81.53
59043;BME280;44826;51.596;5.624;2022-11-20T07:14:35;101110.44;;;-2.01;81.16
59043;BME280;44826;51.596;5.624;2022-11-20T07:17:00;101099.53;;;-1.97;81.21
59043;BME280;44826;51.596;5.624;2022-11-20T07:19:26;101101.28;;;-1.94;81.24
59043;BME280;44826;51.596;5.624;2022-11-20T07:21:51;101102.19;;;-1.92;81.26
59043;BME280;44826;51.596;5.624;2022-11-20T07:24:16;101108.22;;;-1.90;82.62
59043;BME280;44826;51.596;5.624;2022-11-20T07:26:42;101106.63;;;-1.87;82.17
59043;BME280;44826;51.596;5.624;2022-11-20T07:29:07;101110.91;;;-1.86;81.80
59043;BME280;44826;51.596;5.624;2022-11-20T07:31:32;101109.28;;;-1.82;82.15
59043;BME280;44826;51.596;5.624;2022-11-20T07:33:58;101115.31;;;-1.80;81.40
59043;BME280;44826;51.596;5.624;2022-11-20T07:36:23;101113.69;;;-1.76;82.53
59043;BME280;44826;51.596;5.624;2022-11-20T07:38:48;101116.44;;;-1.70;82.45
59043;BME280;44826;51.596;5.624;2022-11-20T07:41:14;101113.25;;;-1.63;81.87
59043;BME280;44826;51.596;5.624;2022-11-20T07:43:39;101102.34;;;-1.57;81.50
59043;BME280;44826;51.596;5.624;2022-11-20T07:46:05;101103.31;;;-1.54;81.94
59043;BME280;44826;51.596;5.624;2022-11-20T07:48:30;101095.69;;;-1.52;81.37
59043;BME280;44826;51.596;5.624;2022-11-20T07:50:56;101099.22;;;-1.47;81.49
59043;BME280;44826;51.596;5.624;2022-11-20T07:53:22;101100.16;;;-1.43;81.60
59043;BME280;44826;51.596;5.624;2022-11-20T07:55:47;101101.97;;;-1.41;81.62
59043;BME280;44826;51.596;5.624;2022-11-20T07:58:13;101107.97;;;-1.39;81.46
59043;BME280;44826;51.596;5.624;2022-11-20T08:00:39;101109.72;;;-1.38;80.99
59043;BME280;44826;51.596;5.624;2022-11-20T08:03:05;101119.03;;;-1.38;81.02
59043;BME280;44826;51.596;5.624;2022-11-20T08:05:30;101125.09;;;-1.34;81.21
59043;BME280;44826;51.596;5.624;2022-11-20T08:07:55;101120.88;;;-1.32;81.18
59043;BME280;44826;51.596;5.624;2022-11-20T08:10:20;101118.44;;;-1.29;80.88
59043;BME280;44826;51.596;5.624;2022-11-20T08:12:49;101106.56;;;-1.27;81.83
59043;BME280;44826;51.596;5.624;2022-11-20T08:15:34;101101.59;;;-1.23;81.57
59043;BME280;44826;51.596;5.624;2022-11-20T08:18:03;101099.97;;;-1.19;81.39
59043;BME280;44826;51.596;5.624;2022-11-20T08:20:29;101099.22;;;-1.15;81.19
59043;BME280;44826;51.596;5.624;2022-11-20T08:23:03;101090.03;;;-1.10;81.43
59043;BME280;44826;51.596;5.624;2022-11-20T08:25:29;101091.03;;;-1.03;80.96
59043;BME280;44826;51.596;5.624;2022-11-20T08:27:57;101092.94;;;-0.96;81.69
59043;BME280;44826;51.596;5.624;2022-11-20T08:30:23;101087.94;;;-0.91;81.79
59043;BME280;44826;51.596;5.624;2022-11-20T08:32:49;101087.19;;;-0.87;81.50
59043;BME280;44826;51.596;5.624;2022-11-20T08:35:15;101093.25;;;-0.82;81.45
59043;BME280;44826;51.596;5.624;2022-11-20T08:37:40;101088.28;;;-0.77;81.69
59043;BME280;44826;51.596;5.624;2022-11-20T08:40:09;101090.97;;;-0.72;81.60
59043;BME280;44826;51.596;5.624;2022-11-20T08:42:34;101090.19;;;-0.68;81.69
59043;BME280;44826;51.596;5.624;2022-11-20T08:44:59;101089.44;;;-0.64;81.30
59043;BME280;44826;51.596;5.624;2022-11-20T08:47:25;101088.63;;;-0.63;81.19
59043;BME280;44826;51.596;5.624;2022-11-20T08:49:50;101090.41;;;-0.60;81.55
59043;BME280;44826;51.596;5.624;2022-11-20T08:52:15;101092.97;;;-0.59;81.45
59043;BME280;44826;51.596;5.624;2022-11-20T08:54:40;101093.91;;;-0.55;81.64
59043;BME280;44826;51.596;5.624;2022-11-20T08:57:06;101099.97;;;-0.52;81.64
59043;BME280;44826;51.596;5.624;2022-11-20T08:59:31;101089.81;;;-0.49;81.96
59043;BME280;44826;51.596;5.624;2022-11-20T09:01:56;101089.88;;;-0.46;82.18
59043;BME280;44826;51.596;5.624;2022-11-20T09:04:21;101087.50;;;-0.38;81.73
59043;BME280;44826;51.596;5.624;2022-11-20T09:06:47;101085.88;;;-0.34;82.33
59043;BME280;44826;51.596;5.624;2022-11-20T09:09:16;101090.22;;;-0.30;82.53
59043;BME280;44826;51.596;5.624;2022-11-20T09:11:41;101080.16;;;-0.24;81.95
59043;BME280;44826;51.596;5.624;2022-11-20T09:14:06;101077.75;;;-0.18;82.01
59043;BME280;44826;51.596;5.624;2022-11-20T09:16:32;101073.59;;;-0.12;82.10
59043;BME280;44826;51.596;5.624;2022-11-20T09:18:57;101077.13;;;-0.06;81.53
59043;BME280;44826;51.596;5.624;2022-11-20T09:21:22;101073.88;;;0.00;81.91
59043;BME280;44826;51.596;5.624;2022-11-20T09:23:48;101073.06;;;0.03;81.96
59043;BME280;44826;51.596;5.624;2022-11-20T09:26:14;101067.19;;;0.08;82.04
59043;BME280;44826;51.596;5.624;2022-11-20T09:28:39;101074.13;;;0.12;82.07
59043;BME280;44826;51.596;5.624;2022-11-20T09:31:08;101069.91;;;0.16;81.90
59043;BME280;44826;51.596;5.624;2022-11-20T09:33:34;101070.81;;;0.17;81.65
59043;BME280;44826;51.596;5.624;2022-11-20T09:36:00;101060.59;;;0.20;81.82
59043;BME280;44826;51.596;5.624;2022-11-20T09:38:25;101062.34;;;0.21;81.59
59043;BME280;44826;51.596;5.624;2022-11-20T09:41:04;101055.59;;;0.24;81.65
59043;BME280;44826;51.596;5.624;2022-11-20T09:46:09;101051.47;;;0.31;82.34
59043;BME280;44826;51.596;5.624;2022-11-20T09:51:44;101041.38;;;0.39;81.94
59043;BME280;44826;51.596;5.624;2022-11-20T09:54:19;101053.38;;;0.43;82.13
59043;BME280;44826;51.596;5.624;2022-11-20T09:56:53;101044.94;;;0.47;82.04
59043;BME280;44826;51.596;5.624;2022-11-20T10:01:58;101043.41;;;0.57;82.14
59043;BME280;44826;51.596;5.624;2022-11-20T10:04:24;101047.75;;;0.61;81.84
59043;BME280;44826;51.596;5.624;2022-11-20T10:09:58;101030.81;;;0.66;82.36
59043;BME280;44826;51.596;5.624;2022-11-20T10:12:40;101034.28;;;0.71;82.41
59043;BME280;44826;51.596;5.624;2022-11-20T10:18:14;101013.13;;;0.82;82.09
59043;BME280;44826;51.596;5.624;2022-11-20T10:21:03;101017.50;;;0.89;82.55
59043;BME280;44826;51.596;5.624;2022-11-20T10:29:45;100985.28;;;1.00;82.48
59043;BME280;44826;51.596;5.624;2022-11-20T10:32:18;100971.66;;;1.04;82.51
59043;BME280;44826;51.596;5.624;2022-11-20T10:34:59;100966.56;;;1.08;82.71
59043;BME280;44826;51.596;5.624;2022-11-20T10:37:27;100966.63;;;1.11;82.91
59043;BME280;44826;51.596;5.624;2022-11-20T10:40:18;100949.63;;;1.16;83.13
59043;BME280;44826;51.596;5.624;2022-11-20T10:43:08;100949.69;;;1.22;82.77
59043;BME280;44826;51.596;5.624;2022-11-20T10:45:39;100944.69;;;1.28;82.79
59043;BME280;44826;51.596;5.624;2022-11-20T10:50:35;100921.72;;;1.34;83.21
59043;BME280;44826;51.596;5.624;2022-11-20T10:56:05;100909.03;;;1.47;83.13
59043;BME280;44826;51.596;5.624;2022-11-20T11:01:20;100905.78;;;1.60;82.96
59043;BME280;44826;51.596;5.624;2022-11-20T11:03:51;100902.41;;;1.64;82.77
59043;BME280;44826;51.596;5.624;2022-11-20T11:06:36;100896.50;;;1.72;83.36
59043;BME280;44826;51.596;5.624;2022-11-20T11:09:13;100893.19;;;1.80;83.07
59043;BME280;44826;51.596;5.624;2022-11-20T11:11:41;100891.53;;;1.86;83.14
59043;BME280;44826;51.596;5.624;2022-11-20T11:14:14;100883.03;;;1.90;83.19
59043;BME280;44826;51.596;5.624;2022-11-20T11:16:54;100873.66;;;1.93;83.15
59043;BME280;44826;51.596;5.624;2022-11-20T11:19:20;100879.66;;;1.94;82.98
59043;BME280;44826;51.596;5.624;2022-11-20T11:21:47;100877.06;;;1.92;83.16
59043;BME280;44826;51.596;5.624;2022-11-20T11:24:24;100877.09;;;1.95;83.47
59043;BME280;44826;51.596;5.624;2022-11-20T11:26:59;100879.66;;;1.95;83.46
59043;BME280;44826;51.596;5.624;2022-11-20T11:29:30;100869.41;;;1.94;83.11
59043;BME280;44826;51.596;5.624;2022-11-20T11:32:14;100877.09;;;1.95;83.54
59043;BME280;44826;51.596;5.624;2022-11-20T11:34:40;100875.41;;;1.97;83.36
59043;BME280;44826;51.596;5.624;2022-11-20T11:37:12;100875.41;;;1.99;83.74
59043;BME280;44826;51.596;5.624;2022-11-20T11:39:42;100871.16;;;2.00;84.15
59043;BME280;44826;51.596;5.624;2022-11-20T11:42:11;100869.47;;;2.02;84.22
59043;BME280;44826;51.596;5.624;2022-11-20T11:44:44;100855.81;;;2.03;84.18
59043;BME280;44826;51.596;5.624;2022-11-20T11:47:45;100863.50;;;2.06;84.24
59043;BME280;44826;51.596;5.624;2022-11-20T11:52:48;100862.69;;;2.10;84.42
59043;BME280;44826;51.596;5.624;2022-11-20T11:55:19;100858.44;;;2.10;84.69
59043;BME280;44826;51.596;5.624;2022-11-20T11:57:51;100856.75;;;2.14;84.51
59043;BME280;44826;51.596;5.624;2022-11-20T12:00:20;100841.34;;;2.14;84.59
59043;BME280;44826;51.596;5.624;2022-11-20T12:07:55;100835.47;;;2.26;84.79
59043;BME280;44826;51.596;5.624;2022-11-20T12:10:39;100823.50;;;2.25;84.91
59043;BME280;44826;51.596;5.624;2022-11-20T12:15:59;100802.13;;;2.31;85.06
59043;BME280;44826;51.596;5.624;2022-11-20T12:18:24;100795.31;;;2.33;85.40
59043;BME280;44826;51.596;5.624;2022-11-20T12:20:57;100779.94;;;2.36;85.98
59043;BME280;44826;51.596;5.624;2022-11-20T12:26:06;100756.84;;;2.39;85.80
59043;BME280;44826;51.596;5.624;2022-11-20T12:28:48;100760.25;;;2.41;86.03
59043;BME280;44826;51.596;5.624;2022-11-20T12:31:52;100757.72;;;2.44;85.96
59043;BME280;44826;51.596;5.624;2022-11-20T12:34:33;100754.31;;;2.50;86.15
59043;BME280;44826;51.596;5.624;2022-11-20T12:37:07;100744.09;;;2.54;84.58
59043;BME280;44826;51.596;5.624;2022-11-20T12:39:35;100735.56;;;2.55;85.92
59043;BME280;44826;51.596;5.624;2022-11-20T12:42:26;100733.81;;;2.57;86.23
59043;BME280;44826;51.596;5.624;2022-11-20T12:45:51;100733.81;;;2.57;85.78
59043;BME280;44826;51.596;5.624;2022-11-20T12:48:38;100734.69;;;2.58;86.10
59043;BME280;44826;51.596;5.624;2022-11-20T12:56:55;100712.47;;;2.63;86.62
59043;BME280;44826;51.596;5.624;2022-11-20T13:02:29;100710.81;;;2.73;86.78
59043;BME280;44826;51.596;5.624;2022-11-20T13:07:24;100686.00;;;2.83;86.79
59043;BME280;44826;51.596;5.624;2022-11-20T13:09:52;100672.34;;;2.88;87.31
59043;BME280;44826;51.596;5.624;2022-11-20T13:15:08;100667.22;;;2.96;87.02
59043;BME280;44826;51.596;5.624;2022-11-20T13:17:47;100658.63;;;2.96;87.25
59043;BME280;44826;51.596;5.624;2022-11-20T13:20:18;100659.47;;;2.95;87.06
59043;BME280;44826;51.596;5.624;2022-11-20T13:22:46;100648.34;;;2.96;87.09
59043;BME280;44826;51.596;5.624;2022-11-20T13:25:41;100647.50;;;2.97;86.58
59043;BME280;44826;51.596;5.624;2022-11-20T13:30:36;100636.34;;;2.92;86.92
59043;BME280;44826;51.596;5.624;2022-11-20T13:33:07;100626.94;;;2.89;87.13
59043;BME280;44826;51.596;5.624;2022-11-20T13:35:34;100626.09;;;2.88;86.75
59043;BME280;44826;51.596;5.624;2022-11-20T13:38:14;100619.22;;;2.87;87.34
59043;BME280;44826;51.596;5.624;2022-11-20T13:40:57;100615.81;;;2.88;87.16
59043;BME280;44826;51.596;5.624;2022-11-20T13:45:59;100607.22;;;2.86;87.69
59043;BME280;44826;51.596;5.624;2022-11-20T13:48:29;100612.34;;;2.85;87.81
59043;BME280;44826;51.596;5.624;2022-11-20T13:57:51;100595.22;;;2.82;88.05
59043;BME280;44826;51.596;5.624;2022-11-20T14:02:32;100583.22;;;2.81;88.30
59043;BME280;44826;51.596;5.624;2022-11-20T14:04:58;100571.25;;;2.85;88.53
59043;BME280;44826;51.596;5.624;2022-11-20T14:07:35;100572.09;;;2.87;88.36
59043;BME280;44826;51.596;5.624;2022-11-20T14:10:03;100571.25;;;2.86;88.30
59043;BME280;44826;51.596;5.624;2022-11-20T14:12:30;100567.84;;;2.87;88.66
59043;BME280;44826;51.596;5.624;2022-11-20T14:14:58;100558.44;;;2.90;88.70
59043;BME280;44826;51.596;5.624;2022-11-20T14:17:33;100559.25;;;2.92;88.85